sensor_id;sensor_type;location;lat;lon;timestamp;pressure;altitude;pressure_sealevel;temperature;humidity
13068;BME280;6600;51.362;6.686;2023-12-28T00:00:42;100657.06;;;12.46;87.88
13068;BME280;6600;51.362;6.686;2023-12-28T00:03:07;100665.56;;;12.43;88.05
13068;BME280;6600;51.362;6.686;2023-12-28T00:05:32;100652.41;;;12.53;87.62
13068;BME280;6600;51.362;6.686;2023-12-28T00:07:58;100666.34;;;12.32;87.59
13068;BME280;6600;51.362;6.686;2023-12-28T00:10:24;100660.69;;;12.52;87.55
13068;BME280;6600;51.362;6.686;2023-12-28T00:12:50;100660.47;;;12.53;87.37
13068;BME280;6600;51.362;6.686;2023-12-28T00:15:15;100667.63;;;12.30;87.62
13068;BME280;6600;51.362;6.686;2023-12-28T00:17:40;100673.91;;;12.53;87.37
13068;BME280;6600;51.362;6.686;2023-12-28T00:20:06;100665.16;;;12.70;86.91
13068;BME280;6600;51.362;6.686;2023-12-28T00:22:31;100665.53;;;12.61;86.84
13068;BME280;6600;51.362;6.686;2023-12-28T00:24:57;100650.28;;;12.55;87.14
13068;BME280;6600;51.362;6.686;2023-12-28T00:27:22;100653.31;;;12.47;87.48
13068;BME280;6600;51.362;6.686;2023-12-28T00:29:48;100671.06;;;12.48;87.08
13068;BME280;6600;51.362;6.686;2023-12-28T00:32:13;100670.38;;;12.53;86.85
13068;BME280;6600;51.362;6.686;2023-12-28T00:34:38;100667.97;;;12.63;87.22
13068;BME280;6600;51.362;6.686;2023-12-28T00:37:05;100688.78;;;12.68;86.94
13068;BME280;6600;51.362;6.686;2023-12-28T00:39:30;100684.66;;;12.53;87.19
13068;BME280;6600;51.362;6.686;2023-12-28T00:41:55;100688.84;;;12.49;87.51
13068;BME280;6600;51.362;6.686;2023-12-28T00:44:20;100688.53;;;12.57;87.28
13068;BME280;6600;51.362;6.686;2023-12-28T00:46:46;100695.13;;;12.43;87.65
13068;BME280;6600;51.362;6.686;2023-12-28T00:49:11;100683.63;;;12.54;87.37
13068;BME280;6600;51.362;6.686;2023-12-28T00:51:36;100685.47;;;12.54;87.89
13068;BME280;6600;51.362;6.686;2023-12-28T00:54:02;100685.47;;;12.54;87.68
13068;BME280;6600;51.362;6.686;2023-12-28T00:56:27;100692.13;;;12.51;87.35
13068;BME280;6600;51.362;6.686;2023-12-28T00:58:52;100691.56;;;12.61;87.70
13068;BME280;6600;51.362;6.686;2023-12-28T01:01:18;100705.22;;;12.59;87.71
13068;BME280;6600;51.362;6.686;2023-12-28T01:03:43;100690.94;;;12.47;87.83
13068;BME280;6600;51.362;6.686;2023-12-28T01:06:08;100701.03;;;12.63;87.98
13068;BME280;6600;51.362;6.686;2023-12-28T01:08:34;100705.69;;;12.56;88.28
13068;BME280;6600;51.362;6.686;2023-12-28T01:10:59;100695.59;;;12.40;88.71
13068;BME280;6600;51.362;6.686;2023-12-28T01:13:25;100704.22;;;12.42;88.81
13068;BME280;6600;51.362;6.686;2023-12-28T01:15:51;100706.88;;;12.60;88.45
13068;BME280;6600;51.362;6.686;2023-12-28T01:18:16;100704.69;;;12.39;89.24
13068;BME280;6600;51.362;6.686;2023-12-28T01:20:41;100710.06;;;12.39;89.13
13068;BME280;6600;51.362;6.686;2023-12-28T01:23:07;100711.25;;;12.43;89.21
13068;BME280;6600;51.362;6.686;2023-12-28T01:25:32;100708.06;;;12.35;89.62
13068;BME280;6600;51.362;6.686;2023-12-28T01:27:57;100710.81;;;12.46;89.52
13068;BME280;6600;51.362;6.686;2023-12-28T01:30:22;100714.97;;;12.42;89.39
13068;BME280;6600;51.362;6.686;2023-12-28T01:32:48;100712.25;;;12.31;89.38
13068;BME280;6600;51.362;6.686;2023-12-28T01:35:14;100712.84;;;12.33;89.43
13068;BME280;6600;51.362;6.686;2023-12-28T01:37:39;100724.53;;;12.38;89.73
13068;BME280;6600;51.362;6.686;2023-12-28T01:40:05;100713.44;;;12.35;89.67
13068;BME280;6600;51.362;6.686;2023-12-28T01:42:31;100723.78;;;12.49;89.22
13068;BME280;6600;51.362;6.686;2023-12-28T01:44:57;100724.53;;;12.38;89.06
13068;BME280;6600;51.362;6.686;2023-12-28T01:47:24;100721.09;;;12.49;89.20
13068;BME280;6600;51.362;6.686;2023-12-28T01:49:50;100717.56;;;12.37;89.65
13068;BME280;6600;51.362;6.686;2023-12-28T01:52:15;100738.41;;;12.53;88.56
13068;BME280;6600;51.362;6.686;2023-12-28T01:54:41;100745.69;;;12.64;88.65
13068;BME280;6600;51.362;6.686;2023-12-28T01:57:06;100750.16;;;12.41;89.60
13068;BME280;6600;51.362;6.686;2023-12-28T01:59:32;100751.47;;;12.50;89.33
13068;BME280;6600;51.362;6.686;2023-12-28T02:01:58;100748.25;;;12.59;88.98
13068;BME280;6600;51.362;6.686;2023-12-28T02:04:24;100739.59;;;12.57;89.02
13068;BME280;6600;51.362;6.686;2023-12-28T02:06:57;100740.78;;;12.61;89.07
13068;BME280;6600;51.362;6.686;2023-12-28T02:09:23;100754.38;;;12.48;89.14
13068;BME280;6600;51.362;6.686;2023-12-28T02:11:49;100756.91;;;12.61;88.62
13068;BME280;6600;51.362;6.686;2023-12-28T02:14:14;100754.53;;;12.53;89.55
13068;BME280;6600;51.362;6.686;2023-12-28T02:17:07;100752.69;;;12.65;89.15
13068;BME280;6600;51.362;6.686;2023-12-28T02:19:50;100751.53;;;12.61;88.94
13068;BME280;6600;51.362;6.686;2023-12-28T02:22:15;100755.91;;;12.44;89.04
13068;BME280;6600;51.362;6.686;2023-12-28T02:27:52;100755.50;;;12.89;88.47
13068;BME280;6600;51.362;6.686;2023-12-28T02:30:21;100754.34;;;12.66;88.90
13068;BME280;6600;51.362;6.686;2023-12-28T02:35:44;100761.31;;;12.86;88.99
13068;BME280;6600;51.362;6.686;2023-12-28T02:38:12;100760.03;;;12.58;89.87
13068;BME280;6600;51.362;6.686;2023-12-28T02:40:42;100754.34;;;12.66;89.89
13068;BME280;6600;51.362;6.686;2023-12-28T02:43:09;100753.44;;;12.73;89.49
13068;BME280;6600;51.362;6.686;2023-12-28T02:45:36;100751.81;;;12.72;89.62
13068;BME280;6600;51.362;6.686;2023-12-28T02:48:02;100752.28;;;12.69;89.81
13068;BME280;6600;51.362;6.686;2023-12-28T02:50:27;100753.03;;;12.57;90.01
13068;BME280;6600;51.362;6.686;2023-12-28T02:52:55;100748.38;;;12.64;89.73
13068;BME280;6600;51.362;6.686;2023-12-28T02:55:20;100754.03;;;12.75;89.96
13068;BME280;6600;51.362;6.686;2023-12-28T02:57:46;100747.88;;;12.86;89.24
13068;BME280;6600;51.362;6.686;2023-12-28T03:00:11;100746.09;;;12.80;89.61
13068;BME280;6600;51.362;6.686;2023-12-28T03:02:37;100751.28;;;12.93;89.18
13068;BME280;6600;51.362;6.686;2023-12-28T03:05:06;100746.03;;;12.98;89.30
13068;BME280;6600;51.362;6.686;2023-12-28T03:07:35;100757.25;;;12.95;89.63
13068;BME280;6600;51.362;6.686;2023-12-28T03:10:01;100765.19;;;12.90;89.34
13068;BME280;6600;51.362;6.686;2023-12-28T03:12:27;100761.69;;;13.01;89.85
13068;BME280;6600;51.362;6.686;2023-12-28T03:14:53;100747.91;;;12.97;89.77
13068;BME280;6600;51.362;6.686;2023-12-28T03:17:18;100746.03;;;12.98;88.74
13068;BME280;6600;51.362;6.686;2023-12-28T03:19:44;100741.56;;;12.92;89.42
13068;BME280;6600;51.362;6.686;2023-12-28T03:22:09;100748.00;;;12.91;89.71
13068;BME280;6600;51.362;6.686;2023-12-28T03:24:36;100742.50;;;12.86;90.35
13068;BME280;6600;51.362;6.686;2023-12-28T03:27:02;100749.25;;;12.77;89.73
13068;BME280;6600;51.362;6.686;2023-12-28T03:29:28;100738.28;;;12.90;89.41
13068;BME280;6600;51.362;6.686;2023-12-28T03:31:53;100737.44;;;12.78;90.23
13068;BME280;6600;51.362;6.686;2023-12-28T03:34:19;100738.59;;;12.70;89.99
13068;BME280;6600;51.362;6.686;2023-12-28T03:36:44;100733.25;;;12.82;90.04
13068;BME280;6600;51.362;6.686;2023-12-28T03:39:10;100729.22;;;12.61;90.69
13068;BME280;6600;51.362;6.686;2023-12-28T03:41:35;100736.13;;;12.69;91.02
13068;BME280;6600;51.362;6.686;2023-12-28T03:44:00;100734.22;;;12.57;91.14
13068;BME280;6600;51.362;6.686;2023-12-28T03:46:26;100735.16;;;12.63;91.40
13068;BME280;6600;51.362;6.686;2023-12-28T03:48:52;100726.00;;;12.52;91.56
13068;BME280;6600;51.362;6.686;2023-12-28T03:51:17;100746.91;;;12.69;91.13
13068;BME280;6600;51.362;6.686;2023-12-28T03:53:43;100731.94;;;12.43;91.55
13068;BME280;6600;51.362;6.686;2023-12-28T03:56:21;100739.72;;;12.62;91.85
13068;BME280;6600;51.362;6.686;2023-12-28T03:58:46;100734.53;;;12.49;91.89
13068;BME280;6600;51.362;6.686;2023-12-28T04:01:12;100726.19;;;12.39;92.00
13068;BME280;6600;51.362;6.686;2023-12-28T04:03:37;100726.25;;;12.51;91.42
13068;BME280;6600;51.362;6.686;2023-12-28T04:06:03;100732.84;;;12.37;91.97
13068;BME280;6600;51.362;6.686;2023-12-28T04:08:28;100745.16;;;12.44;91.98
13068;BME280;6600;51.362;6.686;2023-12-28T04:10:53;100740.06;;;12.54;91.43
13068;BME280;6600;51.362;6.686;2023-12-28T04:13:19;100727.66;;;12.53;91.80
13068;BME280;6600;51.362;6.686;2023-12-28T04:15:44;100734.69;;;12.54;91.63
13068;BME280;6600;51.362;6.686;2023-12-28T04:18:09;100744.38;;;12.55;91.76
13068;BME280;6600;51.362;6.686;2023-12-28T04:20:35;100753.94;;;12.51;91.89
13068;BME280;6600;51.362;6.686;2023-12-28T04:23:00;100753.31;;;12.68;90.78
13068;BME280;6600;51.362;6.686;2023-12-28T04:25:25;100745.06;;;12.51;91.23
13068;BME280;6600;51.362;6.686;2023-12-28T04:27:51;100760.00;;;12.77;90.16
13068;BME280;6600;51.362;6.686;2023-12-28T04:30:16;100747.09;;;12.67;90.43
13068;BME280;6600;51.362;6.686;2023-12-28T04:32:41;100753.44;;;12.73;90.42
13068;BME280;6600;51.362;6.686;2023-12-28T04:35:07;100758.16;;;12.59;90.48
13068;BME280;6600;51.362;6.686;2023-12-28T04:37:32;100758.78;;;12.61;90.56
13068;BME280;6600;51.362;6.686;2023-12-28T04:39:58;100755.75;;;12.69;90.28
13068;BME280;6600;51.362;6.686;2023-12-28T04:42:23;100756.72;;;12.75;90.03
13068;BME280;6600;51.362;6.686;2023-12-28T04:44:48;100754.16;;;12.80;89.72
13068;BME280;6600;51.362;6.686;2023-12-28T04:47:14;100752.97;;;12.76;89.40
13068;BME280;6600;51.362;6.686;2023-12-28T04:49:39;100751.16;;;12.58;90.64
13068;BME280;6600;51.362;6.686;2023-12-28T04:52:04;100741.38;;;12.63;90.60
13068;BME280;6600;51.362;6.686;2023-12-28T04:54:30;100737.81;;;12.51;91.14
13068;BME280;6600;51.362;6.686;2023-12-28T04:56:55;100737.63;;;12.64;90.70
13068;BME280;6600;51.362;6.686;2023-12-28T04:59:21;100739.59;;;12.57;90.78
13068;BME280;6600;51.362;6.686;2023-12-28T05:01:46;100745.16;;;12.74;90.50
13068;BME280;6600;51.362;6.686;2023-12-28T05:04:12;100736.31;;;12.55;90.96
13068;BME280;6600;51.362;6.686;2023-12-28T05:06:37;100739.72;;;12.62;90.05
13068;BME280;6600;51.362;6.686;2023-12-28T05:09:03;100739.41;;;12.71;90.53
13068;BME280;6600;51.362;6.686;2023-12-28T05:11:29;100748.88;;;12.73;89.87
13068;BME280;6600;51.362;6.686;2023-12-28T05:13:54;100755.91;;;12.74;90.49
13068;BME280;6600;51.362;6.686;2023-12-28T05:16:20;100747.31;;;12.65;90.38
13068;BME280;6600;51.362;6.686;2023-12-28T05:18:46;100745.56;;;12.59;90.21
13068;BME280;6600;51.362;6.686;2023-12-28T05:21:12;100750.09;;;12.59;90.51
13068;BME280;6600;51.362;6.686;2023-12-28T05:23:37;100760.00;;;12.77;90.17
13068;BME280;6600;51.362;6.686;2023-12-28T05:26:02;100763.03;;;12.69;90.01
13068;BME280;6600;51.362;6.686;2023-12-28T05:28:28;100771.41;;;12.60;90.25
13068;BME280;6600;51.362;6.686;2023-12-28T05:30:53;100770.94;;;12.63;90.36
13068;BME280;6600;51.362;6.686;2023-12-28T05:33:18;100777.50;;;12.68;89.96
13068;BME280;6600;51.362;6.686;2023-12-28T05:35:44;100773.91;;;12.74;89.15
13068;BME280;6600;51.362;6.686;2023-12-28T05:38:09;100781.69;;;12.63;89.43
13068;BME280;6600;51.362;6.686;2023-12-28T05:40:35;100778.50;;;12.85;88.63
13068;BME280;6600;51.362;6.686;2023-12-28T05:43:00;100770.63;;;12.72;89.02
13068;BME280;6600;51.362;6.686;2023-12-28T05:45:25;100783.63;;;12.75;89.03
13068;BME280;6600;51.362;6.686;2023-12-28T05:47:51;100778.22;;;12.75;89.54
13068;BME280;6600;51.362;6.686;2023-12-28T05:50:16;100780.41;;;12.96;88.60
13068;BME280;6600;51.362;6.686;2023-12-28T05:52:41;100786.59;;;12.96;88.07
13068;BME280;6600;51.362;6.686;2023-12-28T05:55:07;100788.22;;;12.86;88.90
13068;BME280;6600;51.362;6.686;2023-12-28T05:57:33;100788.59;;;12.89;88.71
13068;BME280;6600;51.362;6.686;2023-12-28T05:59:58;100793.34;;;12.87;88.89
13068;BME280;6600;51.362;6.686;2023-12-28T06:02:23;100797.59;;;12.95;88.71
13068;BME280;6600;51.362;6.686;2023-12-28T06:04:49;100801.66;;;12.86;88.74
13068;BME280;6600;51.362;6.686;2023-12-28T06:07:14;100818.22;;;12.83;88.70
13068;BME280;6600;51.362;6.686;2023-12-28T06:09:40;100805.25;;;12.80;88.90
13068;BME280;6600;51.362;6.686;2023-12-28T06:12:05;100798.69;;;12.76;89.26
13068;BME280;6600;51.362;6.686;2023-12-28T06:14:31;100799.31;;;12.59;89.13
13068;BME280;6600;51.362;6.686;2023-12-28T06:16:56;100785.22;;;12.76;88.67
13068;BME280;6600;51.362;6.686;2023-12-28T06:19:22;100790.78;;;12.62;88.98
13068;BME280;6600;51.362;6.686;2023-12-28T06:21:48;100794.94;;;12.77;89.16
13068;BME280;6600;51.362;6.686;2023-12-28T06:24:13;100799.00;;;12.68;89.13
13068;BME280;6600;51.362;6.686;2023-12-28T06:26:42;100803.00;;;12.77;89.23
13068;BME280;6600;51.362;6.686;2023-12-28T06:29:08;100802.28;;;12.70;89.02
13068;BME280;6600;51.362;6.686;2023-12-28T06:31:35;100797.38;;;12.66;89.21
13068;BME280;6600;51.362;6.686;2023-12-28T06:34:04;100805.66;;;12.95;88.81
13068;BME280;6600;51.362;6.686;2023-12-28T06:36:30;100786.88;;;12.77;88.64
13068;BME280;6600;51.362;6.686;2023-12-28T06:38:55;100802.28;;;12.70;89.06
13068;BME280;6600;51.362;6.686;2023-12-28T06:41:21;100787.72;;;12.77;88.67
13068;BME280;6600;51.362;6.686;2023-12-28T06:43:46;100790.59;;;12.76;88.56
13068;BME280;6600;51.362;6.686;2023-12-28T06:46:11;100780.19;;;12.68;88.45
13068;BME280;6600;51.362;6.686;2023-12-28T06:48:37;100790.84;;;12.74;88.39
13068;BME280;6600;51.362;6.686;2023-12-28T06:51:05;100791.16;;;12.66;88.61
13068;BME280;6600;51.362;6.686;2023-12-28T06:53:30;100792.72;;;12.74;88.72
13068;BME280;6600;51.362;6.686;2023-12-28T06:55:56;100786.41;;;12.80;88.20
13068;BME280;6600;51.362;6.686;2023-12-28T06:58:21;100795.09;;;12.82;87.92
13068;BME280;6600;51.362;6.686;2023-12-28T07:00:46;100791.16;;;12.66;88.40
13068;BME280;6600;51.362;6.686;2023-12-28T07:03:12;100797.81;;;12.93;87.67
13068;BME280;6600;51.362;6.686;2023-12-28T07:05:37;100801.47;;;12.99;87.52
13068;BME280;6600;51.362;6.686;2023-12-28T07:08:02;100813.16;;;12.93;87.20
13068;BME280;6600;51.362;6.686;2023-12-28T07:10:28;100798.06;;;12.92;87.69
13068;BME280;6600;51.362;6.686;2023-12-28T07:12:53;100813.06;;;12.99;87.36
13068;BME280;6600;51.362;6.686;2023-12-28T07:15:18;100803.81;;;12.95;87.23
13068;BME280;6600;51.362;6.686;2023-12-28T07:17:44;100810.50;;;12.75;87.71
13068;BME280;6600;51.362;6.686;2023-12-28T07:20:09;100810.69;;;12.91;87.35
13068;BME280;6600;51.362;6.686;2023-12-28T07:22:36;100814.31;;;12.97;87.22
13068;BME280;6600;51.362;6.686;2023-12-28T07:25:01;100815.53;;;12.83;87.12
13068;BME280;6600;51.362;6.686;2023-12-28T07:27:26;100814.78;;;12.94;87.35
13068;BME280;6600;51.362;6.686;2023-12-28T07:29:52;100816.88;;;12.92;86.98
13068;BME280;6600;51.362;6.686;2023-12-28T07:32:17;100822.44;;;13.08;86.50
13068;BME280;6600;51.362;6.686;2023-12-28T07:34:42;100827.09;;;13.01;86.06
13068;BME280;6600;51.362;6.686;2023-12-28T07:37:08;100832.94;;;12.98;85.97
13068;BME280;6600;51.362;6.686;2023-12-28T07:39:33;100828.66;;;13.09;86.18
13068;BME280;6600;51.362;6.686;2023-12-28T07:41:59;100838.38;;;13.10;86.16
13068;BME280;6600;51.362;6.686;2023-12-28T07:44:24;100840.03;;;12.93;86.10
13068;BME280;6600;51.362;6.686;2023-12-28T07:46:50;100851.09;;;13.03;86.39
13068;BME280;6600;51.362;6.686;2023-12-28T07:49:15;100850.91;;;13.16;85.86
13068;BME280;6600;51.362;6.686;2023-12-28T07:51:41;100859.38;;;13.31;85.16
13068;BME280;6600;51.362;6.686;2023-12-28T07:54:06;100860.03;;;13.15;85.86
13068;BME280;6600;51.362;6.686;2023-12-28T07:56:31;100861.13;;;13.26;85.07
13068;BME280;6600;51.362;6.686;2023-12-28T07:58:57;100866.59;;;13.19;86.05
13068;BME280;6600;51.362;6.686;2023-12-28T08:01:22;100866.13;;;13.22;85.41
13068;BME280;6600;51.362;6.686;2023-12-28T08:03:48;100861.84;;;13.33;85.00
13068;BME280;6600;51.362;6.686;2023-12-28T08:06:13;100867.06;;;13.16;85.80
13068;BME280;6600;51.362;6.686;2023-12-28T08:08:38;100869.78;;;13.28;85.33
13068;BME280;6600;51.362;6.686;2023-12-28T08:11:04;100878.00;;;13.33;85.25
13068;BME280;6600;51.362;6.686;2023-12-28T08:13:29;100878.72;;;13.40;84.40
13068;BME280;6600;51.362;6.686;2023-12-28T08:15:54;100882.56;;;13.32;85.03
13068;BME280;6600;51.362;6.686;2023-12-28T08:18:20;100875.41;;;13.38;84.44
13068;BME280;6600;51.362;6.686;2023-12-28T08:20:45;100873.19;;;13.23;84.60
13068;BME280;6600;51.362;6.686;2023-12-28T08:23:10;100870.78;;;13.15;85.52
13068;BME280;6600;51.362;6.686;2023-12-28T08:25:35;100869.78;;;13.28;85.16
13068;BME280;6600;51.362;6.686;2023-12-28T08:28:01;100870.22;;;13.25;84.84
13068;BME280;6600;51.362;6.686;2023-12-28T08:30:26;100879.97;;;13.07;85.48
13068;BME280;6600;51.362;6.686;2023-12-28T08:32:52;100879.28;;;13.30;84.73
13068;BME280;6600;51.362;6.686;2023-12-28T08:35:18;100889.13;;;13.36;84.25
13068;BME280;6600;51.362;6.686;2023-12-28T08:37:43;100884.88;;;13.29;84.66
13068;BME280;6600;51.362;6.686;2023-12-28T08:40:09;100895.44;;;13.30;84.73
13068;BME280;6600;51.362;6.686;2023-12-28T08:42:34;100894.88;;;13.40;85.02
13068;BME280;6600;51.362;6.686;2023-12-28T08:44:59;100895.88;;;13.27;84.76
13068;BME280;6600;51.362;6.686;2023-12-28T08:47:25;100900.28;;;13.51;84.81
13068;BME280;6600;51.362;6.686;2023-12-28T08:49:50;100895.50;;;13.53;84.30
13068;BME280;6600;51.362;6.686;2023-12-28T08:52:15;100903.63;;;13.35;85.12
13068;BME280;6600;51.362;6.686;2023-12-28T08:54:41;100902.34;;;13.38;84.71
13068;BME280;6600;51.362;6.686;2023-12-28T08:57:06;100892.13;;;13.58;83.52
13068;BME280;6600;51.362;6.686;2023-12-28T08:59:36;100897.94;;;13.43;84.60
13068;BME280;6600;51.362;6.686;2023-12-28T09:02:01;100906.25;;;13.53;83.80
13068;BME280;6600;51.362;6.686;2023-12-28T09:04:26;100899.22;;;13.52;83.89
13068;BME280;6600;51.362;6.686;2023-12-28T09:06:52;100906.25;;;13.53;84.16
13068;BME280;6600;51.362;6.686;2023-12-28T09:09:18;100912.31;;;13.37;84.46
13068;BME280;6600;51.362;6.686;2023-12-28T09:11:43;100907.66;;;13.44;84.45
13068;BME280;6600;51.362;6.686;2023-12-28T09:14:08;100892.75;;;13.42;84.77
13068;BME280;6600;51.362;6.686;2023-12-28T09:16:33;100903.00;;;13.51;83.77
13068;BME280;6600;51.362;6.686;2023-12-28T09:19:00;100895.38;;;13.60;83.75
13068;BME280;6600;51.362;6.686;2023-12-28T09:21:26;100907.69;;;13.68;83.86
13068;BME280;6600;51.362;6.686;2023-12-28T09:23:51;100909.97;;;13.82;83.22
13068;BME280;6600;51.362;6.686;2023-12-28T09:26:17;100908.63;;;13.61;83.50
13068;BME280;6600;51.362;6.686;2023-12-28T09:28:43;100918.00;;;13.71;83.04
13068;BME280;6600;51.362;6.686;2023-12-28T09:31:09;100919.44;;;13.85;82.28
13068;BME280;6600;51.362;6.686;2023-12-28T09:33:34;100925.91;;;13.95;82.75
13068;BME280;6600;51.362;6.686;2023-12-28T09:35:59;100918.75;;;13.89;82.51
13068;BME280;6600;51.362;6.686;2023-12-28T09:38:25;100916.34;;;13.70;83.45
13068;BME280;6600;51.362;6.686;2023-12-28T09:40:53;100921.78;;;13.93;82.78
13068;BME280;6600;51.362;6.686;2023-12-28T09:43:26;100918.97;;;13.88;82.54
13068;BME280;6600;51.362;6.686;2023-12-28T09:45:52;100904.88;;;13.62;82.86
13068;BME280;6600;51.362;6.686;2023-12-28T09:48:19;100901.28;;;14.03;81.52
13068;BME280;6600;51.362;6.686;2023-12-28T09:50:54;100904.69;;;13.99;81.93
13068;BME280;6600;51.362;6.686;2023-12-28T09:53:24;100910.44;;;14.02;82.05
13068;BME280;6600;51.362;6.686;2023-12-28T09:55:50;100919.44;;;13.85;82.57
13068;BME280;6600;51.362;6.686;2023-12-28T09:58:20;100907.38;;;13.87;82.42
13068;BME280;6600;51.362;6.686;2023-12-28T10:00:47;100905.53;;;14.11;81.79
13068;BME280;6600;51.362;6.686;2023-12-28T10:03:13;100914.53;;;14.05;81.35
13068;BME280;6600;51.362;6.686;2023-12-28T10:05:43;100909.16;;;14.05;81.24
13068;BME280;6600;51.362;6.686;2023-12-28T10:08:11;100908.56;;;14.03;81.61
13068;BME280;6600;51.362;6.686;2023-12-28T10:10:37;100917.59;;;14.20;80.94
13068;BME280;6600;51.362;6.686;2023-12-28T10:13:03;100919.94;;;14.28;80.27
13068;BME280;6600;51.362;6.686;2023-12-28T10:15:30;100924.50;;;14.16;81.47
13068;BME280;6600;51.362;6.686;2023-12-28T10:17:56;100919.22;;;14.21;81.12
13068;BME280;6600;51.362;6.686;2023-12-28T10:20:21;100921.44;;;13.89;80.88
13068;BME280;6600;51.362;6.686;2023-12-28T10:22:47;100915.38;;;14.05;80.86
13068;BME280;6600;51.362;6.686;2023-12-28T10:25:12;100921.44;;;13.89;81.27
13068;BME280;6600;51.362;6.686;2023-12-28T10:27:39;100914.78;;;14.15;80.87
13068;BME280;6600;51.362;6.686;2023-12-28T10:30:07;100919.78;;;14.00;81.34
13068;BME280;6600;51.362;6.686;2023-12-28T10:32:32;100908.91;;;13.95;81.53
13068;BME280;6600;51.362;6.686;2023-12-28T10:34:57;100911.72;;;14.00;81.20
13068;BME280;6600;51.362;6.686;2023-12-28T10:37:26;100919.94;;;14.16;81.60
13068;BME280;6600;51.362;6.686;2023-12-28T10:39:54;100920.03;;;13.98;81.95
13068;BME280;6600;51.362;6.686;2023-12-28T10:42:28;100923.69;;;14.15;81.90
13068;BME280;6600;51.362;6.686;2023-12-28T10:45:02;100918.31;;;14.27;81.31
13068;BME280;6600;51.362;6.686;2023-12-28T10:47:31;100898.84;;;14.25;81.41
13068;BME280;6600;51.362;6.686;2023-12-28T10:50:00;100912.75;;;13.87;81.53
13068;BME280;6600;51.362;6.686;2023-12-28T10:52:28;100908.91;;;14.18;80.81
13068;BME280;6600;51.362;6.686;2023-12-28T10:58:07;100910.56;;;14.07;81.17
13068;BME280;6600;51.362;6.686;2023-12-28T11:00:36;100902.97;;;14.16;80.62
13068;BME280;6600;51.362;6.686;2023-12-28T11:03:06;100907.53;;;14.27;80.21
13068;BME280;6600;51.362;6.686;2023-12-28T11:05:35;100906.81;;;14.20;80.64
13068;BME280;6600;51.362;6.686;2023-12-28T11:08:02;100894.16;;;14.09;80.82
13068;BME280;6600;51.362;6.686;2023-12-28T11:10:29;100900.50;;;14.26;79.65
13068;BME280;6600;51.362;6.686;2023-12-28T11:12:56;100906.34;;;14.23;80.06
13068;BME280;6600;51.362;6.686;2023-12-28T11:15:22;100904.00;;;14.15;79.76
13068;BME280;6600;51.362;6.686;2023-12-28T11:17:49;100896.06;;;14.20;80.01
13068;BME280;6600;51.362;6.686;2023-12-28T11:20:14;100897.31;;;14.29;79.57
13068;BME280;6600;51.362;6.686;2023-12-28T11:22:41;100891.84;;;14.47;78.79
13068;BME280;6600;51.362;6.686;2023-12-28T11:25:14;100896.53;;;14.40;79.43
13068;BME280;6600;51.362;6.686;2023-12-28T11:27:40;100892.28;;;14.21;78.99
13068;BME280;6600;51.362;6.686;2023-12-28T11:30:06;100894.63;;;14.29;79.07
13068;BME280;6600;51.362;6.686;2023-12-28T11:32:40;100898.97;;;14.53;78.47
13068;BME280;6600;51.362;6.686;2023-12-28T11:35:07;100892.63;;;14.25;79.23
13068;BME280;6600;51.362;6.686;2023-12-28T11:37:36;100884.31;;;14.49;78.48
13068;BME280;6600;51.362;6.686;2023-12-28T11:40:16;100883.41;;;14.44;78.72
13068;BME280;6600;51.362;6.686;2023-12-28T11:42:50;100882.19;;;14.63;78.25
13068;BME280;6600;51.362;6.686;2023-12-28T11:45:19;100874.25;;;14.33;78.53
13068;BME280;6600;51.362;6.686;2023-12-28T11:47:45;100877.50;;;14.58;77.89
13068;BME280;6600;51.362;6.686;2023-12-28T11:50:11;100873.53;;;14.61;78.23
13068;BME280;6600;51.362;6.686;2023-12-28T11:52:37;100872.38;;;14.45;78.68
13068;BME280;6600;51.362;6.686;2023-12-28T11:55:03;100879.19;;;14.36;78.51
13068;BME280;6600;51.362;6.686;2023-12-28T11:57:29;100865.09;;;14.34;78.81
13068;BME280;6600;51.362;6.686;2023-12-28T11:59:56;100866.63;;;14.53;78.24
13068;BME280;6600;51.362;6.686;2023-12-28T12:02:22;100859.50;;;14.36;78.38
13068;BME280;6600;51.362;6.686;2023-12-28T12:04:49;100846.22;;;14.34;78.68
13068;BME280;6600;51.362;6.686;2023-12-28T12:07:14;100857.22;;;14.56;77.60
13068;BME280;6600;51.362;6.686;2023-12-28T12:09:40;100854.41;;;14.28;78.63
13068;BME280;6600;51.362;6.686;2023-12-28T12:12:06;100849.13;;;14.68;77.63
13068;BME280;6600;51.362;6.686;2023-12-28T12:14:31;100864.75;;;14.42;78.25
13068;BME280;6600;51.362;6.686;2023-12-28T12:16:57;100849.38;;;14.31;78.08
13068;BME280;6600;51.362;6.686;2023-12-28T12:19:24;100839.53;;;14.48;77.63
13068;BME280;6600;51.362;6.686;2023-12-28T12:21:54;100844.91;;;14.48;77.39
13068;BME280;6600;51.362;6.686;2023-12-28T12:24:20;100828.59;;;14.55;77.42
13068;BME280;6600;51.362;6.686;2023-12-28T12:26:46;100838.59;;;14.54;78.12
13068;BME280;6600;51.362;6.686;2023-12-28T12:29:13;100830.75;;;14.53;77.82
13068;BME280;6600;51.362;6.686;2023-12-28T12:31:40;100832.25;;;14.60;77.50
13068;BME280;6600;51.362;6.686;2023-12-28T12:34:10;100824.63;;;14.57;77.74
13068;BME280;6600;51.362;6.686;2023-12-28T12:36:36;100822.44;;;14.43;77.90
13068;BME280;6600;51.362;6.686;2023-12-28T12:39:02;100824.78;;;14.39;78.32
13068;BME280;6600;51.362;6.686;2023-12-28T12:41:31;100807.50;;;14.52;77.56
13068;BME280;6600;51.362;6.686;2023-12-28T12:43:57;100817.59;;;14.56;77.77
13068;BME280;6600;51.362;6.686;2023-12-28T12:46:24;100821.19;;;14.74;76.88
13068;BME280;6600;51.362;6.686;2023-12-28T12:48:59;100816.41;;;14.64;77.29
13068;BME280;6600;51.362;6.686;2023-12-28T12:51:26;100811.53;;;14.38;77.28
13068;BME280;6600;51.362;6.686;2023-12-28T12:53:59;100816.09;;;14.49;78.16
13068;BME280;6600;51.362;6.686;2023-12-28T12:56:29;100816.91;;;14.49;76.93
13068;BME280;6600;51.362;6.686;2023-12-28T12:58:54;100819.31;;;14.62;76.61
13068;BME280;6600;51.362;6.686;2023-12-28T13:01:20;100824.97;;;14.61;77.26
13068;BME280;6600;51.362;6.686;2023-12-28T13:03:46;100813.28;;;14.32;77.23